Time;durP1;ratioP1;P1;durP2;ratioP2;P2;SDS_P1;SDS_P2;PMS_P1;PMS_P2;Temp;Humidity;BMP_temperature;BMP_pressure;BME280_temperature;BME280_humidity;BME280_pressure;Samples;Min_cycle;Max_cycle;Signal;HPM_P1;HPM_P2
2022/03/25 00:02:26;;;;;;;95.78;69.57;;;;;;;9.35;51.11;103145.84;5228255;28;20415;-59
2022/03/25 00:04:59;;;;;;;104.57;72.28;;;;;;;9.31;51.53;103143.44;5225737;28;20963;-58
2022/03/25 00:07:31;;;;;;;105.15;72.47;;;;;;;9.28;51.49;103146.25;5225542;28;20776;-59
2022/03/25 00:10:05;;;;;;;98.15;69.68;;;;;;;9.23;51.55;103139.47;5226133;28;20775;-56
2022/03/25 00:12:38;;;;;;;96.35;68.15;;;;;;;9.19;51.54;103144.97;5230669;28;20521;-57
2022/03/25 00:15:12;;;;;;;102.60;69.93;;;;;;;9.16;51.81;103146.00;5241862;28;20400;-58
2022/03/25 00:17:44;;;;;;;102.45;69.60;;;;;;;9.07;51.86;103135.94;5238835;28;20487;-58
2022/03/25 00:20:17;;;;;;;100.17;72.07;;;;;;;9.07;51.82;103140.38;5237189;28;20480;-59
2022/03/25 00:22:49;;;;;;;100.70;70.55;;;;;;;9.05;51.93;103143.09;5238693;28;20906;-59
2022/03/25 00:25:23;;;;;;;100.32;69.25;;;;;;;9.05;52.12;103143.09;5233650;28;20412;-59
2022/03/25 00:27:55;;;;;;;107.22;74.40;;;;;;;9.03;52.38;103144.97;5240049;28;20946;-58
2022/03/25 00:30:29;;;;;;;105.73;72.50;;;;;;;9.00;52.12;103139.84;5230558;28;20546;-55
2022/03/25 00:33:02;;;;;;;105.57;72.25;;;;;;;8.99;52.03;103149.56;5232092;28;20795;-59
2022/03/25 00:35:34;;;;;;;105.55;72.40;;;;;;;8.98;52.40;103152.25;5233408;28;20423;-57
2022/03/25 00:38:07;;;;;;;102.47;69.03;;;;;;;8.97;52.36;103148.78;5233552;28;20501;-59
2022/03/25 00:40:39;;;;;;;106.53;71.82;;;;;;;8.92;52.48;103147.31;5233715;28;20421;-57
2022/03/25 00:43:11;;;;;;;101.20;72.45;;;;;;;8.89;52.46;103148.34;5240221;28;21338;-58
2022/03/25 00:45:46;;;;;;;109.25;74.47;;;;;;;8.81;52.48;103144.41;5230382;28;20415;-58
2022/03/25 00:48:19;;;;;;;103.15;69.10;;;;;;;8.77;52.80;103149.84;5239139;28;20443;-58
2022/03/25 00:50:51;;;;;;;108.95;74.70;;;;;;;8.75;52.63;103145.59;5229871;28;20490;-58
2022/03/25 00:53:25;;;;;;;112.90;74.50;;;;;;;8.74;52.84;103139.47;5238477;28;20429;-58
2022/03/25 00:55:57;;;;;;;109.45;75.93;;;;;;;8.68;53.08;103138.97;5237830;28;20436;-59
2022/03/25 00:58:30;;;;;;;111.78;75.57;;;;;;;8.62;53.15;103137.50;5241539;28;20394;-58
2022/03/25 01:01:03;;;;;;;113.63;76.53;;;;;;;8.61;53.15;103137.56;5228967;28;20455;-59
2022/03/25 01:03:36;;;;;;;112.20;77.50;;;;;;;8.62;52.98;103134.84;5230684;28;20837;-59
2022/03/25 01:06:08;;;;;;;119.50;78.15;;;;;;;8.57;52.92;103130.75;5236239;28;20493;-58
2022/03/25 01:08:41;;;;;;;117.03;78.77;;;;;;;8.52;53.17;103138.91;5231092;28;23565;-58
2022/03/25 01:11:13;;;;;;;129.07;84.10;;;;;;;8.52;53.34;103144.19;5232048;28;20912;-58
2022/03/25 01:13:46;;;;;;;124.82;82.40;;;;;;;8.44;53.02;103143.72;5235576;28;20408;-58
2022/03/25 01:16:19;;;;;;;123.85;83.75;;;;;;;8.45;53.38;103153.31;5240896;28;20419;-58
2022/03/25 01:18:52;;;;;;;122.22;83.85;;;;;;;8.38;53.47;103138.72;5230520;28;20411;-51
2022/03/25 01:21:24;;;;;;;118.05;79.70;;;;;;;8.36;53.51;103143.22;5233207;28;20766;-58
2022/03/25 01:23:57;;;;;;;118.27;82.53;;;;;;;8.33;53.46;103152.16;5243311;28;21177;-57
2022/03/25 01:26:30;;;;;;;120.90;84.45;;;;;;;8.31;53.47;103152.22;5235916;28;20445;-58
2022/03/25 01:29:06;;;;;;;122.53;81.33;;;;;;;8.28;53.73;103147.09;5240781;28;20508;-58
2022/03/25 01:31:40;;;;;;;125.35;82.63;;;;;;;8.25;53.59;103144.63;5233547;28;20499;-58
2022/03/25 01:34:12;;;;;;;121.65;80.38;;;;;;;8.23;53.63;103149.09;5234068;28;20774;-58
2022/03/25 01:36:44;;;;;;;122.30;82.68;;;;;;;8.20;53.60;103148.41;5232559;28;20501;-59
2022/03/25 01:39:17;;;;;;;135.20;84.97;;;;;;;8.19;53.61;103147.56;5238864;28;20529;-58
2022/03/25 01:41:50;;;;;;;118.60;81.55;;;;;;;8.14;54.08;103146.94;5235809;28;20773;-61
2022/03/25 01:44:26;;;;;;;127.95;85.78;;;;;;;8.09;54.09;103141.91;5231252;28;20406;-59
2022/03/25 01:47:01;;;;;;;123.47;83.28;;;;;;;8.05;54.22;103145.63;5226265;28;20904;-58
2022/03/25 01:49:34;;;;;;;131.60;86.60;;;;;;;7.98;54.21;103133.69;5241266;28;20590;-58
2022/03/25 01:52:07;;;;;;;134.90;87.72;;;;;;;7.99;54.22;103129.28;5238872;28;20423;-58
2022/03/25 01:54:39;;;;;;;127.43;87.53;;;;;;;7.98;54.42;103138.97;5237492;28;20418;-59
2022/03/25 01:57:12;;;;;;;132.90;87.45;;;;;;;7.96;54.59;103139.97;5239148;28;20406;-59
2022/03/25 01:59:44;;;;;;;128.40;84.10;;;;;;;7.91;54.38;103139.34;5236109;28;20480;-57
2022/03/25 02:02:18;;;;;;;127.03;82.10;;;;;;;7.81;54.57;103131.91;5237816;28;20434;-57
2022/03/25 02:04:51;;;;;;;140.48;87.32;;;;;;;7.74;54.84;103114.75;5239365;28;20509;-60
2022/03/25 02:07:23;;;;;;;131.00;86.63;;;;;;;7.78;54.88;103137.31;5238018;28;20499;-57
2022/03/25 02:09:58;;;;;;;129.15;85.43;;;;;;;7.78;54.76;103137.31;5234381;28;20496;-59
2022/03/25 02:12:30;;;;;;;126.75;82.70;;;;;;;7.80;54.84;103140.75;5227282;28;20407;-59
2022/03/25 02:15:05;;;;;;;128.35;86.43;;;;;;;7.77;54.96;103137.38;5227843;28;20491;-59
2022/03/25 02:17:38;;;;;;;131.23;87.88;;;;;;;7.66;54.75;103127.41;5229897;28;20416;-58
2022/03/25 02:20:12;;;;;;;131.23;87.50;;;;;;;7.66;55.29;103132.66;5228785;28;23945;-60
2022/03/25 02:22:46;;;;;;;134.15;85.35;;;;;;;7.65;55.15;103138.84;5227674;28;20511;-59
2022/03/25 02:25:21;;;;;;;133.27;88.53;;;;;;;7.64;55.11;103139.75;5229318;28;20461;-54
2022/03/25 02:27:54;;;;;;;120.85;83.28;;;;;;;7.62;55.22;103142.47;5224333;28;20404;-58
2022/03/25 02:30:27;;;;;;;133.53;86.93;;;;;;;7.58;55.55;103135.66;5229436;28;20451;-56
2022/03/25 02:33:01;;;;;;;138.85;88.97;;;;;;;7.53;55.45;103121.03;5230177;28;20484;-54
2022/03/25 02:35:39;;;;;;;130.50;85.40;;;;;;;7.56;55.59;103132.25;5229003;28;20399;-60
2022/03/25 02:38:16;;;;;;;137.45;85.82;;;;;;;7.52;55.50;103121.94;5231116;28;20439;-59
2022/03/25 02:40:48;;;;;;;129.50;87.60;;;;;;;7.56;55.66;103126.16;5224595;28;20428;-59
2022/03/25 02:43:21;;;;;;;131.65;87.00;;;;;;;7.49;55.91;103125.56;5237367;28;20942;-60
2022/03/25 02:45:53;;;;;;;133.77;87.03;;;;;;;7.53;55.69;103121.03;5214149;28;20513;-61
2022/03/25 02:48:26;;;;;;;137.02;89.32;;;;;;;7.45;55.82;103123.19;5228744;28;20469;-59
2022/03/25 02:51:16;;;;;;;139.50;87.88;;;;;;;7.50;55.84;103121.19;5228206;28;21249;-58
2022/03/25 02:53:51;;;;;;;136.83;91.23;;;;;;;7.49;55.86;103127.34;5227681;28;20449;-58
2022/03/25 02:56:24;;;;;;;138.48;90.50;;;;;;;7.48;56.08;103128.28;5224697;28;20412;-56
2022/03/25 02:58:57;;;;;;;144.13;89.88;;;;;;;7.47;55.98;103126.59;5227453;28;20992;-58
2022/03/25 03:01:30;;;;;;;144.77;95.72;;;;;;;7.46;56.09;103124.88;5225004;28;20569;-58
2022/03/25 03:04:02;;;;;;;146.50;95.18;;;;;;;7.45;56.16;103123.19;5227521;28;20431;-59
2022/03/25 03:06:34;;;;;;;144.80;91.77;;;;;;;7.46;56.34;103130.13;5226182;28;20572;-56
2022/03/25 03:09:08;;;;;;;140.45;92.32;;;;;;;7.45;55.99;103131.91;5226233;28;20495;-59
2022/03/25 03:11:41;;;;;;;139.95;91.43;;;;;;;7.45;56.32;103128.44;5229920;28;20897;-59
2022/03/25 03:14:13;;;;;;;138.85;90.78;;;;;;;7.47;56.13;103126.59;5235370;28;20487;-57
2022/03/25 03:16:46;;;;;;;142.93;92.53;;;;;;;7.44;56.39;103127.59;5233967;28;20929;-57
2022/03/25 03:19:18;;;;;;;144.10;91.78;;;;;;;7.41;56.61;103117.22;5234454;28;20553;-59
2022/03/25 03:21:52;;;;;;;138.60;90.38;;;;;;;7.35;56.73;103113.09;5234229;28;20523;-58
2022/03/25 03:24:26;;;;;;;139.90;88.57;;;;;;;7.18;56.85;103088.53;5231320;28;20418;-59
2022/03/25 03:26:59;;;;;;;139.40;92.45;;;;;;;7.35;56.78;103122.75;5231826;28;20515;-59
2022/03/25 03:29:32;;;;;;;143.43;93.13;;;;;;;7.35;56.78;103120.13;5233847;28;20419;-59
2022/03/25 03:32:06;;;;;;;145.75;91.57;;;;;;;7.34;56.82;103126.28;5234108;28;20510;-58
2022/03/25 03:34:38;;;;;;;139.55;89.80;;;;;;;7.19;56.75;103099.00;5231964;28;20489;-59
2022/03/25 03:37:11;;;;;;;138.48;90.25;;;;;;;7.25;56.89;103117.09;5236230;28;20428;-59
2022/03/25 03:39:44;;;;;;;139.20;92.70;;;;;;;7.31;56.86;103122.06;5237563;28;20496;-59
2022/03/25 03:42:17;;;;;;;135.65;88.15;;;;;;;7.30;56.72;103122.13;5241983;28;20410;-59
2022/03/25 03:44:50;;;;;;;144.35;94.47;;;;;;;6.51;56.63;103032.97;5241702;28;21133;-58
2022/03/25 03:47:22;;;;;;;139.57;91.22;;;;;;;7.28;57.16;103111.69;5240246;28;20667;-52
2022/03/25 03:49:55;;;;;;;137.18;88.63;;;;;;;7.27;57.20;103114.38;5234346;28;20439;-58
2022/03/25 03:52:27;;;;;;;139.45;88.93;;;;;;;7.24;57.21;103107.50;5233524;28;20416;-58
2022/03/25 03:55:01;;;;;;;140.40;89.20;;;;;;;7.24;57.33;103119.78;5240184;28;20436;-58
2022/03/25 03:57:35;;;;;;;139.57;90.17;;;;;;;7.22;57.37;103117.25;5236869;28;20557;-60
2022/03/25 04:00:11;;;;;;;132.65;87.35;;;;;;;7.20;57.24;103118.22;5233237;28;20964;-59
2022/03/25 04:02:45;;;;;;;140.48;88.53;;;;;;;7.14;56.99;103111.47;5232585;28;20777;-53
2022/03/25 04:05:17;;;;;;;138.63;87.43;;;;;;;7.14;57.29;103111.47;5234873;28;20872;-58
2022/03/25 04:07:50;;;;;;;133.02;84.80;;;;;;;7.14;57.29;103114.94;5227581;28;20762;-58
2022/03/25 04:10:24;;;;;;;129.60;85.43;;;;;;;7.09;57.45;103116.09;5238964;28;20398;-57
2022/03/25 04:12:56;;;;;;;130.07;85.18;;;;;;;7.08;57.17;103114.38;5228347;28;20430;-59
2022/03/25 04:15:29;;;;;;;136.40;87.32;;;;;;;7.07;57.38;103123.22;5224907;28;20445;-60
2022/03/25 04:18:01;;;;;;;138.85;88.03;;;;;;;7.04;57.46;103125.97;5232535;28;20415;-59
2022/03/25 04:20:34;;;;;;;129.68;82.50;;;;;;;7.00;57.62;103132.28;5220198;28;20416;-60
2022/03/25 04:23:07;;;;;;;133.10;86.07;;;;;;;6.97;57.68;103135.03;5220525;28;20772;-58
2022/03/25 04:25:41;;;;;;;131.23;87.85;;;;;;;6.93;57.69;103135.19;5224723;28;20502;-59
2022/03/25 04:28:13;;;;;;;134.13;86.03;;;;;;;6.83;57.50;103122.53;5226292;28;20462;-59
2022/03/25 04:30:46;;;;;;;142.43;89.20;;;;;;;6.88;57.41;103141.59;5227935;28;20396;-59
2022/03/25 04:33:18;;;;;;;132.75;86.72;;;;;;;6.85;57.68;103134.69;5231338;28;20406;-59
2022/03/25 04:35:51;;;;;;;145.68;88.38;;;;;;;6.77;57.48;103126.28;5229932;28;20493;-59
2022/03/25 04:38:23;;;;;;;134.88;84.65;;;;;;;6.80;57.44;103131.41;5216911;28;20457;-60
2022/03/25 04:40:57;;;;;;;139.50;88.13;;;;;;;6.77;57.47;103130.69;5226289;28;20503;-58
2022/03/25 04:43:30;;;;;;;133.55;87.03;;;;;;;6.74;57.70;103131.69;5227217;28;20431;-58
2022/03/25 04:46:02;;;;;;;138.60;85.47;;;;;;;6.70;57.29;103132.75;5225531;28;20491;-58
2022/03/25 04:48:35;;;;;;;143.85;89.10;;;;;;;6.71;57.75;103139.69;5225876;28;20531;-58
2022/03/25 04:51:08;;;;;;;143.10;88.32;;;;;;;6.67;57.85;103146.03;5223953;28;20415;-58
2022/03/25 04:53:40;;;;;;;135.38;86.43;;;;;;;6.65;57.58;103145.22;5224330;28;20970;-58
2022/03/25 04:56:14;;;;;;;134.38;87.55;;;;;;;6.39;57.82;103102.59;5226876;28;20482;-58
2022/03/25 04:58:47;;;;;;;136.75;86.90;;;;;;;6.61;57.81;103141.03;5226722;28;20404;-58
2022/03/25 05:01:19;;;;;;;138.27;86.32;;;;;;;6.58;57.82;103155.16;5226604;28;20474;-59
2022/03/25 05:03:51;;;;;;;137.73;87.90;;;;;;;6.57;57.81;103145.56;5224331;28;20587;-50
2022/03/25 05:06:24;;;;;;;139.80;86.28;;;;;;;6.49;57.71;103141.56;5195834;28;20903;-58
2022/03/25 05:08:56;;;;;;;136.40;86.97;;;;;;;6.49;58.07;103146.81;5226083;28;20517;-59
2022/03/25 05:11:30;;;;;;;132.00;85.63;;;;;;;6.48;57.79;103161.72;5211457;28;20852;-60
2022/03/25 05:14:03;;;;;;;136.43;86.00;;;;;;;6.44;58.12;103155.75;5220023;28;20431;-58
2022/03/25 05:16:35;;;;;;;136.05;85.43;;;;;;;6.11;57.83;103102.94;5204674;28;20453;-53
2022/03/25 05:19:08;;;;;;;140.05;86.55;;;;;;;6.42;58.01;103154.97;5223530;28;20506;-59
2022/03/25 05:21:40;;;;;;;144.00;88.40;;;;;;;6.41;57.87;103149.75;5214885;28;20521;-60
2022/03/25 05:24:12;;;;;;;142.48;89.10;;;;;;;6.40;57.85;103146.28;5215747;28;20470;-60
2022/03/25 05:26:46;;;;;;;141.32;84.88;;;;;;;6.17;58.25;103115.78;5194555;28;20435;-58
2022/03/25 05:29:19;;;;;;;151.35;91.50;;;;;;;6.38;57.80;103147.28;5223174;28;20423;-59
2022/03/25 05:31:51;;;;;;;137.82;85.30;;;;;;;6.36;57.97;103146.50;5231689;28;20420;-61
2022/03/25 05:34:24;;;;;;;142.60;85.97;;;;;;;6.38;58.20;103148.16;5199763;28;20427;-59
2022/03/25 05:36:56;;;;;;;159.70;86.97;;;;;;;6.32;58.14;103145.78;5187233;28;20438;-60
2022/03/25 05:39:28;;;;;;;143.25;86.95;;;;;;;6.36;58.11;103147.34;5233541;28;20492;-59
2022/03/25 05:42:03;;;;;;;148.57;87.57;;;;;;;6.38;58.30;103160.38;5218973;28;20940;-59
2022/03/25 05:44:35;;;;;;;139.98;84.93;;;;;;;6.40;58.05;103164.66;5210708;28;20492;-59
2022/03/25 05:47:07;;;;;;;141.90;87.40;;;;;;;6.42;58.11;103188.25;5209794;28;20433;-60
2022/03/25 05:49:40;;;;;;;147.85;88.28;;;;;;;6.43;58.17;103161.91;5221088;28;20471;-60
2022/03/25 05:52:12;;;;;;;136.60;85.40;;;;;;;6.45;58.27;103167.94;5230953;28;20884;-59
2022/03/25 05:54:45;;;;;;;138.43;86.50;;;;;;;6.44;58.41;103155.75;5246887;28;20542;-59
2022/03/25 05:57:19;;;;;;;149.00;88.88;;;;;;;6.46;58.31;103179.31;5217488;28;20405;-59
2022/03/25 05:59:51;;;;;;;140.25;86.22;;;;;;;6.59;58.24;103169.13;5222803;28;20542;-59
2022/03/25 06:02:24;;;;;;;137.05;84.22;;;;;;;6.65;58.27;103174.09;5207543;28;20483;-60
2022/03/25 06:04:56;;;;;;;135.25;86.45;;;;;;;6.71;58.58;103179.09;5208844;28;20506;-59
2022/03/25 06:07:36;;;;;;;141.63;83.72;;;;;;;6.78;58.63;103179.66;5194104;28;20456;-59
2022/03/25 06:10:11;;;;;;;135.60;84.30;;;;;;;6.86;58.41;103178.41;5207552;28;20496;-60
2022/03/25 06:12:45;;;;;;;133.43;82.60;;;;;;;6.94;58.65;103180.72;5227046;28;20408;-60
2022/03/25 06:15:17;;;;;;;131.90;81.80;;;;;;;7.02;58.58;103183.00;5210036;28;20955;-60
2022/03/25 06:17:51;;;;;;;134.23;78.50;;;;;;;7.10;58.36;103180.88;5225889;28;20411;-59
2022/03/25 06:20:24;;;;;;;124.93;76.97;;;;;;;7.21;58.50;103188.25;5220928;28;20409;-56
2022/03/25 06:22:57;;;;;;;126.05;78.68;;;;;;;7.28;58.61;103177.41;5224579;28;20435;-56
2022/03/25 06:25:30;;;;;;;120.78;79.53;;;;;;;7.38;58.66;103176.03;5209826;28;20424;-58
2022/03/25 06:28:06;;;;;;;120.27;75.63;;;;;;;7.53;58.23;103184.16;5221832;28;20449;-58
2022/03/25 06:30:39;;;;;;;119.30;75.13;;;;;;;7.65;58.59;103187.94;5219020;28;20416;-55
2022/03/25 06:33:12;;;;;;;125.95;76.30;;;;;;;7.76;58.78;103193.56;5209660;28;20481;-55
2022/03/25 06:35:45;;;;;;;121.82;75.57;;;;;;;7.87;58.58;103193.91;5206578;28;20417;-57
2022/03/25 06:38:18;;;;;;;116.00;74.15;;;;;;;7.96;58.96;103182.94;5201130;28;20482;-56
2022/03/25 06:40:50;;;;;;;109.43;72.03;;;;;;;8.04;58.75;103187.81;5207863;28;20418;-56
2022/03/25 06:43:27;;;;;;;112.53;72.22;;;;;;;8.25;58.56;103197.28;5205870;28;20488;-58
2022/03/25 06:45:59;;;;;;;108.65;72.05;;;;;;;8.27;58.73;103179.63;5217692;28;20492;-56
2022/03/25 06:48:32;;;;;;;112.05;69.82;;;;;;;8.50;58.71;103203.97;5215925;28;20497;-54
2022/03/25 06:51:05;;;;;;;104.60;71.38;;;;;;;9.03;58.18;103197.69;5213503;28;20956;-57
2022/03/25 06:53:39;;;;;;;99.90;68.38;;;;;;;10.28;57.26;103205.69;5220691;28;20419;-54
2022/03/25 06:56:13;;;;;;;89.63;61.03;;;;;;;11.54;56.37;103204.09;5206386;28;20489;-55
2022/03/25 06:58:47;;;;;;;81.47;56.00;;;;;;;12.71;55.35;103199.03;5227394;28;20875;-54
2022/03/25 07:01:21;;;;;;;79.47;52.20;;;;;;;13.81;54.54;103191.16;5228518;28;20433;-54
2022/03/25 07:03:54;;;;;;;70.07;49.25;;;;;;;14.95;53.69;103201.13;5228859;28;20473;-55
2022/03/25 07:06:27;;;;;;;71.23;48.73;;;;;;;15.72;53.10;103203.00;5230584;28;20589;-54
2022/03/25 07:09:01;;;;;;;74.53;49.65;;;;;;;16.42;52.28;103209.59;5203569;28;20487;-52
2022/03/25 07:11:34;;;;;;;72.38;47.92;;;;;;;16.76;51.89;103218.25;5240250;28;20443;-52
2022/03/25 07:14:08;;;;;;;69.20;48.20;;;;;;;16.82;51.50;103223.06;5231886;28;20414;-52
2022/03/25 07:16:42;;;;;;;70.18;46.97;;;;;;;17.15;50.75;103208.56;5231489;28;20412;-53
2022/03/25 07:19:14;;;;;;;69.13;46.40;;;;;;;17.37;50.01;103215.53;5200388;28;20419;-54
2022/03/25 07:21:47;;;;;;;68.60;45.30;;;;;;;17.73;49.33;103214.06;5215581;28;20506;-54
2022/03/25 07:24:20;;;;;;;66.80;45.67;;;;;;;18.39;48.26;103221.38;5221123;28;20507;-55
2022/03/25 07:26:52;;;;;;;67.97;46.65;;;;;;;18.83;47.43;103227.09;5216412;28;20872;-52
2022/03/25 07:29:26;;;;;;;63.85;46.33;;;;;;;18.95;46.95;103221.53;5229893;28;20422;-54
2022/03/25 07:31:59;;;;;;;69.07;46.23;;;;;;;19.11;46.54;103227.13;5229184;28;20502;-51
2022/03/25 07:34:34;;;;;;;66.47;46.00;;;;;;;18.97;46.54;103243.66;5230469;28;20420;-55
2022/03/25 07:37:06;;;;;;;68.30;48.50;;;;;;;19.21;46.02;103245.84;5230204;28;20773;-54
2022/03/25 07:39:39;;;;;;;67.90;48.00;;;;;;;19.22;45.82;103232.28;5229436;28;20507;-55
2022/03/25 07:42:11;;;;;;;69.53;48.17;;;;;;;19.13;45.61;103241.19;5227179;28;20608;-54
2022/03/25 07:44:45;;;;;;;66.97;48.55;;;;;;;19.14;45.07;103210.75;5226713;28;20424;-51
2022/03/25 07:47:18;;;;;;;72.15;49.65;;;;;;;19.43;44.53;103237.38;5224480;28;20435;-51
2022/03/25 07:49:50;;;;;;;69.03;49.42;;;;;;;19.74;43.99;103245.13;5228205;28;20419;-52
2022/03/25 07:52:23;;;;;;;70.32;48.63;;;;;;;20.11;43.41;103242.28;5200845;28;20965;-55
2022/03/25 07:54:56;;;;;;;72.55;47.92;;;;;;;20.14;43.25;103236.63;5205784;28;20538;-50
2022/03/25 07:57:29;;;;;;;65.90;46.25;;;;;;;20.29;42.48;103233.41;5205669;28;20425;-54
2022/03/25 08:00:03;;;;;;;61.33;42.50;;;;;;;20.63;42.17;103237.03;5222870;28;20796;-54
2022/03/25 08:02:36;;;;;;;63.88;43.65;;;;;;;20.55;41.84;103263.81;5199322;28;20434;-53
2022/03/25 08:05:13;;;;;;;62.70;44.03;;;;;;;20.45;41.57;103271.09;5210670;28;20869;-52
2022/03/25 08:07:48;;;;;;;65.28;44.28;;;;;;;20.66;40.98;103262.72;5213078;28;20433;-54
2022/03/25 08:10:23;;;;;;;58.28;41.35;;;;;;;20.74;40.59;103254.69;5213217;28;20410;-60
2022/03/25 08:12:56;;;;;;;59.55;42.63;;;;;;;20.77;40.27;103269.66;5219123;28;20919;-54
2022/03/25 08:15:32;;;;;;;59.17;41.33;;;;;;;20.83;39.93;103275.22;5215386;28;20907;-53
2022/03/25 08:18:06;;;;;;;58.58;42.17;;;;;;;20.94;39.80;103276.81;5209947;28;20528;-51
2022/03/25 08:20:42;;;;;;;61.83;41.40;;;;;;;20.94;39.66;103282.19;5197633;28;20436;-52
2022/03/25 08:27:48;;;;;;;60.87;39.80;;;;;;;20.79;39.68;103284.63;5207767;28;20387;-54
2022/03/25 08:29:01;;;;;;;57.03;36.47;;;;;;;20.80;39.25;103278.25;5214414;28;20429;-53
2022/03/25 08:31:35;;;;;;;51.17;35.63;;;;;;;21.30;38.47;103282.88;5218837;28;20429;-54
2022/03/25 08:34:13;;;;;;;50.67;33.45;;;;;;;21.83;37.96;103283.56;5209475;28;20405;-53
2022/03/25 08:36:49;;;;;;;55.03;34.15;;;;;;;21.95;37.64;103293.00;5204727;28;20405;-53
2022/03/25 08:39:23;;;;;;;47.38;32.10;;;;;;;21.52;37.90;103286.84;5214674;28;20420;-52
2022/03/25 08:41:55;;;;;;;54.10;33.93;;;;;;;20.92;38.12;103284.19;5205931;28;20425;-55
2022/03/25 08:44:28;;;;;;;52.03;33.97;;;;;;;20.82;38.30;103278.09;5201701;28;20528;-53
2022/03/25 08:47:03;;;;;;;52.22;33.03;;;;;;;20.99;38.19;103290.59;5205553;28;20416;-54
2022/03/25 08:49:35;;;;;;;49.90;32.47;;;;;;;21.27;37.73;103293.09;5183413;28;20429;-55
2022/03/25 08:52:08;;;;;;;47.38;31.58;;;;;;;21.17;37.65;103299.44;5211929;28;20813;-52
2022/03/25 08:54:40;;;;;;;50.72;33.35;;;;;;;20.32;38.42;103286.75;5222196;28;20803;-53
2022/03/25 08:57:13;;;;;;;50.13;32.63;;;;;;;19.84;38.98;103293.31;5202981;28;20456;-54
2022/03/25 08:59:45;;;;;;;51.07;33.67;;;;;;;19.78;39.03;103306.31;5206401;28;20413;-57
2022/03/25 09:02:19;;;;;;;52.28;33.85;;;;;;;19.54;39.17;103300.66;5209466;28;20509;-55
2022/03/25 09:04:52;;;;;;;50.73;32.80;;;;;;;19.37;39.28;103304.13;5225427;28;20439;-53
2022/03/25 09:07:24;;;;;;;49.53;32.45;;;;;;;19.63;39.03;103304.28;5225528;28;20491;-54
2022/03/25 09:09:57;;;;;;;49.35;33.80;;;;;;;19.76;38.71;103302.97;5226126;28;20434;-55
2022/03/25 09:12:29;;;;;;;49.38;33.03;;;;;;;19.13;39.38;103313.53;5225238;28;20584;-54
2022/03/25 09:15:03;;;;;;;49.08;34.40;;;;;;;18.44;40.17;103302.06;5228874;28;20491;-55
2022/03/25 09:17:37;;;;;;;48.40;33.47;;;;;;;18.30;40.36;103318.56;5223635;28;20429;-51
2022/03/25 09:20:12;;;;;;;52.00;34.67;;;;;;;18.28;40.17;103307.16;5227318;28;20407;-55
2022/03/25 09:22:45;;;;;;;51.03;33.05;;;;;;;17.81;40.57;103312.31;5228540;28;20403;-54
2022/03/25 09:25:17;;;;;;;55.27;34.97;;;;;;;17.50;40.92;103312.31;5228030;28;20499;-56
2022/03/25 09:27:50;;;;;;;52.88;35.30;;;;;;;17.36;41.02;103310.00;5227093;28;20489;-57
2022/03/25 09:30:23;;;;;;;56.85;34.08;;;;;;;17.28;41.00;103309.81;5226232;28;20454;-51
2022/03/25 09:32:56;;;;;;;53.77;34.13;;;;;;;17.27;40.84;103308.13;5224599;28;20416;-54
2022/03/25 09:35:29;;;;;;;54.20;34.30;;;;;;;17.02;40.95;103288.06;5228134;28;20416;-53
2022/03/25 09:38:01;;;;;;;52.67;34.88;;;;;;;16.95;40.93;103303.75;5228062;28;20419;-54
2022/03/25 09:40:34;;;;;;;56.67;34.43;;;;;;;16.97;40.82;103291.16;5227243;28;20415;-55
2022/03/25 09:43:07;;;;;;;54.03;33.47;;;;;;;16.88;40.82;103299.06;5227174;28;20461;-54
2022/03/25 09:45:40;;;;;;;53.97;35.17;;;;;;;16.95;40.76;103290.41;5227308;28;20514;-55
2022/03/25 09:48:14;;;;;;;51.80;34.45;;;;;;;16.87;40.62;103292.88;5227222;28;20416;-52
2022/03/25 09:50:46;;;;;;;60.85;36.53;;;;;;;16.76;40.69;103290.31;5225697;28;20478;-57
2022/03/25 09:53:19;;;;;;;57.25;36.25;;;;;;;16.64;40.55;103297.50;5224482;28;20401;-54
2022/03/25 09:55:54;;;;;;;59.33;37.50;;;;;;;16.39;40.54;103295.19;5226205;28;20441;-56
2022/03/25 09:58:28;;;;;;;58.45;37.78;;;;;;;16.30;40.54;103302.16;5224037;28;20784;-54
2022/03/25 10:01:00;;;;;;;59.92;39.85;;;;;;;16.30;40.26;103294.16;5227018;28;20419;-55
2022/03/25 10:03:36;;;;;;;67.57;39.20;;;;;;;16.24;40.04;103297.31;5215220;28;20417;-56
2022/03/25 10:06:11;;;;;;;61.60;36.03;;;;;;;16.35;39.88;103297.25;5213824;28;20418;-55
2022/03/25 10:08:45;;;;;;;62.45;38.00;;;;;;;16.39;39.53;103301.38;5196638;28;20768;-56
2022/03/25 10:11:23;;;;;;;65.65;39.67;;;;;;;16.40;39.29;103291.56;5203133;28;20549;-55
2022/03/25 10:14:24;;;;;;;63.30;39.15;;;;;;;16.37;39.05;103293.50;5222309;28;20450;-56
2022/03/25 10:16:59;;;;;;;68.25;41.33;;;;;;;16.01;39.07;103254.75;5206185;28;20897;-58
2022/03/25 10:19:33;;;;;;;65.60;42.53;;;;;;;16.09;38.88;103299.41;5210466;28;20449;-55
2022/03/25 10:22:06;;;;;;;63.13;39.57;;;;;;;15.96;38.73;103301.41;5231049;28;20422;-60
2022/03/25 10:24:44;;;;;;;62.33;37.65;;;;;;;15.99;38.73;103288.66;5231180;28;20412;-60
2022/03/25 10:27:21;;;;;;;64.10;39.47;;;;;;;16.08;38.58;103293.25;5228932;28;20498;-60
2022/03/25 10:29:55;;;;;;;64.57;38.93;;;;;;;16.21;38.37;103297.56;5206013;28;20507;-61
2022/03/25 10:32:27;;;;;;;61.15;38.53;;;;;;;16.24;38.25;103286.66;5227220;28;20432;-60
2022/03/25 10:35:08;;;;;;;62.67;37.78;;;;;;;16.31;38.06;103287.81;5230342;28;20988;-60
2022/03/25 10:37:59;;;;;;;77.30;39.03;;;;;;;16.30;37.91;103286.16;5226096;28;20503;-60
2022/03/25 10:40:32;;;;;;;58.47;37.00;;;;;;;16.28;37.82;103288.06;5228720;28;20403;-60
2022/03/25 10:43:06;;;;;;;65.00;37.23;;;;;;;16.28;37.74;103277.41;5224423;28;20921;-60
2022/03/25 10:45:40;;;;;;;59.85;34.65;;;;;;;15.72;37.62;103192.34;5222659;28;20419;-60
2022/03/25 10:48:18;;;;;;;62.78;35.22;;;;;;;16.11;37.76;103295.66;5229912;28;20412;-58
2022/03/25 10:51:04;;;;;;;62.22;35.97;;;;;;;15.91;37.71;103291.09;5209488;28;20413;-60
2022/03/25 10:53:43;;;;;;;56.15;34.00;;;;;;;15.81;37.55;103282.19;5221653;28;20423;-60
2022/03/25 10:56:15;;;;;;;57.53;33.60;;;;;;;15.82;37.62;103298.03;5208953;28;20403;-61
2022/03/25 10:58:52;;;;;;;57.92;34.83;;;;;;;15.87;37.43;103287.84;5202335;28;20493;-61
2022/03/25 11:01:25;;;;;;;59.53;33.08;;;;;;;15.96;37.34;103290.75;5205661;28;20743;-61
2022/03/25 11:03:58;;;;;;;57.00;33.35;;;;;;;16.00;37.11;103290.34;5211021;28;20449;-60
2022/03/25 11:06:34;;;;;;;54.30;31.67;;;;;;;15.76;37.04;103241.72;5211772;28;20577;-59
2022/03/25 11:09:09;;;;;;;53.57;33.07;;;;;;;16.26;36.60;103279.34;5229360;28;20837;-59
2022/03/25 11:11:42;;;;;;;56.67;32.40;;;;;;;16.33;36.72;103291.22;5231737;28;20412;-59
2022/03/25 11:14:15;;;;;;;55.95;31.00;;;;;;;16.38;36.59;103283.66;5232156;28;20759;-60
2022/03/25 11:16:52;;;;;;;48.60;29.38;;;;;;;16.48;36.48;103284.59;5232774;28;20854;-59
2022/03/25 11:19:25;;;;;;;46.63;27.35;;;;;;;16.68;36.20;103284.72;5218900;28;20439;-61
2022/03/25 11:21:59;;;;;;;47.53;27.23;;;;;;;16.85;35.97;103286.84;5231778;28;20412;-59
2022/03/25 11:24:36;;;;;;;43.72;26.52;;;;;;;16.85;35.76;103285.97;5232090;28;20506;-59
2022/03/25 11:27:22;;;;;;;42.70;25.73;;;;;;;16.69;35.77;103286.41;5231854;28;20510;-59
2022/03/25 11:29:58;;;;;;;44.37;25.97;;;;;;;16.62;35.95;103285.25;5228966;28;20487;-59
2022/03/25 11:32:30;;;;;;;46.53;27.67;;;;;;;16.52;35.78;103296.69;5230590;28;20507;-59
2022/03/25 11:35:21;;;;;;;50.78;27.80;;;;;;;16.47;35.65;103282.06;5225356;28;20494;-60
2022/03/25 11:40:53;;;;;;;46.92;27.15;;;;;;;16.50;35.35;103277.31;5195366;27;2129281;-59
2022/03/25 11:43:28;;;;;;;46.53;27.73;;;;;;;16.47;35.33;103250.03;5258300;28;20393;-60
2022/03/25 11:46:06;;;;;;;47.67;26.83;;;;;;;16.67;35.21;103272.38;5268650;28;20470;-59